Time;durP1;ratioP1;P1;durP2;ratioP2;P2;SDS_P1;SDS_P2;PMS_P1;PMS_P2;Temp;Humidity;BMP_temperature;BMP_pressure;BME280_temperature;BME280_humidity;BME280_pressure;Samples;Min_cycle;Max_cycle;Signal;HPM_P1;HPM_P2
2023/10/17 00:00:39;;;;;;;;;;;;;;;28.40;20.72;98644.91;5085605;28;19920;-88
2023/10/17 00:03:06;;;;;;;;;;;;;;;28.51;20.42;98641.78;5075638;28;19920;-88
2023/10/17 00:05:33;;;;;;;;;;;;;;;28.58;20.65;98644.38;5080612;28;19921;-88
2023/10/17 00:07:59;;;;;;;;;;;;;;;28.61;20.66;98638.63;5078913;28;19970;-88
2023/10/17 00:10:30;;;;;;;;;;;;;;;28.18;21.13;98632.69;5081712;28;20018;-89
2023/10/17 00:13:08;;;;;;;;;;;;;;;27.91;21.45;98630.22;5075107;28;19928;-88
2023/10/17 00:15:37;;;;;;;;;;;;;;;27.76;21.55;98637.50;5078685;28;20406;-88
2023/10/17 00:18:11;;;;;;;;;;;;;;;27.85;21.39;98636.84;5080351;28;19927;-88
2023/10/17 00:20:37;;;;;;;;;;;;;;;27.70;21.72;98633.63;5088190;28;19965;-88
2023/10/17 00:23:04;;;;;;;;;;;;;;;27.27;22.05;98628.34;5086167;28;19924;-87
2023/10/17 00:25:30;;;;;;;;;;;;;;;27.55;21.90;98634.47;5078438;28;19924;-88
2023/10/17 00:27:58;;;;;;;;;;;;;;;27.90;21.39;98627.84;5080352;28;19920;-88
2023/10/17 00:30:24;;;;;;;;;;;;;;;28.15;21.33;98629.97;5075186;28;19920;-88
2023/10/17 00:32:50;;;;;;;;;;;;;;;27.84;21.74;98618.34;5084901;28;19995;-88
2023/10/17 00:35:19;;;;;;;;;;;;;;;27.56;22.00;98622.78;5088657;28;19951;-88
2023/10/17 00:37:54;;;;;;;;;;;;;;;27.61;21.97;98629.91;5088627;28;19928;-88
2023/10/17 00:40:45;;;;;;;;;;;;;;;27.86;21.54;98621.53;5081167;28;20023;-89
2023/10/17 00:43:14;;;;;;;;;;;;;;;27.97;21.83;98622.00;5084307;28;19921;-88
2023/10/17 00:45:40;;;;;;;;;;;;;;;27.63;22.05;98622.56;5076053;28;19924;-88
2023/10/17 00:48:17;;;;;;;;;;;;;;;27.62;21.88;98620.97;5083714;28;20280;-87
2023/10/17 00:50:44;;;;;;;;;;;;;;;27.75;21.49;98624.63;5085737;28;20019;-89
2023/10/17 00:53:11;;;;;;;;;;;;;;;27.75;21.61;98618.97;5080625;28;19967;-88
2023/10/17 00:55:38;;;;;;;;;;;;;;;27.71;21.60;98621.13;5087746;28;20451;-88
2023/10/17 00:58:06;;;;;;;;;;;;;;;27.82;21.53;98630.06;5083048;28;20372;-87
2023/10/17 01:00:36;;;;;;;;;;;;;;;27.55;21.71;98621.16;5090095;28;19921;-88
2023/10/17 01:03:08;;;;;;;;;;;;;;;27.42;21.99;98628.78;5086325;28;20296;-88
2023/10/17 01:05:57;;;;;;;;;;;;;;;27.61;21.68;98622.19;5079682;28;19921;-88
2023/10/17 01:08:46;;;;;;;;;;;;;;;27.54;21.49;98624.44;5081090;28;20367;-88
2023/10/17 01:11:20;;;;;;;;;;;;;;;27.67;21.83;98630.94;5090505;28;19996;-88
2023/10/17 01:13:52;;;;;;;;;;;;;;;27.20;22.06;98628.53;5087959;28;19955;-88
2023/10/17 01:16:19;;;;;;;;;;;;;;;26.89;22.67;98627.28;5088202;28;21623;-88
2023/10/17 01:18:46;;;;;;;;;;;;;;;26.93;22.51;98632.88;5074730;28;19921;-88
2023/10/17 01:21:20;;;;;;;;;;;;;;;27.49;21.79;98625.00;5082195;28;19920;-88
2023/10/17 01:23:47;;;;;;;;;;;;;;;27.80;21.50;98635.38;5078795;28;19946;-88
2023/10/17 01:26:14;;;;;;;;;;;;;;;28.07;21.00;98626.56;5087763;28;19920;-88
2023/10/17 01:28:45;;;;;;;;;;;;;;;28.13;21.18;98621.16;5081838;28;19920;-88
2023/10/17 01:31:14;;;;;;;;;;;;;;;28.15;21.13;98627.94;5083860;28;19920;-88
2023/10/17 01:33:43;;;;;;;;;;;;;;;28.13;21.02;98616.28;5084818;28;20282;-88
2023/10/17 01:36:10;;;;;;;;;;;;;;;28.23;21.12;98631.34;5078345;28;19943;-88
2023/10/17 01:38:36;;;;;;;;;;;;;;;28.36;20.83;98635.75;5075331;28;20403;-88
2023/10/17 01:41:02;;;;;;;;;;;;;;;28.37;21.05;98636.56;5087238;28;20015;-88
2023/10/17 01:43:39;;;;;;;;;;;;;;;28.26;21.25;98636.09;5086623;28;20387;-88
2023/10/17 01:46:11;;;;;;;;;;;;;;;28.29;21.13;98640.81;5078025;28;19925;-88
2023/10/17 01:48:37;;;;;;;;;;;;;;;28.25;21.09;98635.31;5075198;28;19920;-88
2023/10/17 01:51:07;;;;;;;;;;;;;;;28.10;21.08;98639.78;5092596;28;20413;-88
2023/10/17 01:53:34;;;;;;;;;;;;;;;28.22;21.07;98641.84;5078478;28;20414;-88
2023/10/17 01:56:07;;;;;;;;;;;;;;;28.00;21.30;98641.69;5086644;28;19943;-88
2023/10/17 01:58:36;;;;;;;;;;;;;;;28.13;21.08;98640.91;5081243;28;20015;-88
2023/10/17 02:01:03;;;;;;;;;;;;;;;27.85;21.16;98643.28;5088335;28;19927;-88
2023/10/17 02:03:30;;;;;;;;;;;;;;;27.96;20.97;98640.97;5082948;28;19927;-88
2023/10/17 02:05:56;;;;;;;;;;;;;;;28.06;21.18;98648.38;5081143;28;19944;-88
2023/10/17 02:08:22;;;;;;;;;;;;;;;28.15;21.09;98646.91;5079769;28;20018;-88
2023/10/17 02:10:48;;;;;;;;;;;;;;;27.94;21.50;98648.28;5084424;28;19927;-88
2023/10/17 02:13:15;;;;;;;;;;;;;;;27.77;21.33;98641.91;5085463;28;19920;-88
2023/10/17 02:15:41;;;;;;;;;;;;;;;27.95;20.92;98642.22;5079696;28;20003;-88
2023/10/17 02:18:12;;;;;;;;;;;;;;;28.14;20.63;98645.34;5076523;28;20023;-87
2023/10/17 02:20:45;;;;;;;;;;;;;;;28.23;20.35;98640.63;5076967;28;20277;-88
2023/10/17 02:23:19;;;;;;;;;;;;;;;27.93;21.13;98643.91;5084065;28;19920;-88
2023/10/17 02:25:45;;;;;;;;;;;;;;;27.61;20.92;98647.59;5087086;28;20441;-88
2023/10/17 02:28:11;;;;;;;;;;;;;;;27.65;21.15;98642.66;5080023;28;19920;-87
2023/10/17 02:30:38;;;;;;;;;;;;;;;27.75;20.79;98652.84;5080472;28;19982;-88
2023/10/17 02:33:11;;;;;;;;;;;;;;;27.79;20.55;98641.47;5089712;28;19931;-88
2023/10/17 02:35:43;;;;;;;;;;;;;;;27.81;20.34;98642.63;5078155;28;20350;-88
2023/10/17 02:38:10;;;;;;;;;;;;;;;27.75;20.58;98647.19;5081311;28;19924;-88
2023/10/17 02:40:40;;;;;;;;;;;;;;;27.79;20.73;98644.28;5076158;28;20015;-89
2023/10/17 02:43:06;;;;;;;;;;;;;;;27.75;20.23;98652.84;5073099;28;20003;-89
2023/10/17 02:45:32;;;;;;;;;;;;;;;27.38;21.06;98645.00;5076277;28;20287;-89
2023/10/17 02:48:19;;;;;;;;;;;;;;;27.21;20.81;98649.81;5074990;28;20018;-88
2023/10/17 02:50:58;;;;;;;;;;;;;;;27.38;20.34;98654.25;5076135;28;19921;-88
2023/10/17 02:53:24;;;;;;;;;;;;;;;27.48;20.36;98648.78;5083732;28;20006;-88
2023/10/17 02:55:50;;;;;;;;;;;;;;;27.48;19.94;98655.22;5087364;28;19919;-88
2023/10/17 02:58:16;;;;;;;;;;;;;;;27.44;20.16;98659.38;5090605;28;20383;-87
2023/10/17 03:00:47;;;;;;;;;;;;;;;27.41;19.87;98661.03;5078816;28;19926;-88
2023/10/17 03:03:14;;;;;;;;;;;;;;;27.12;19.98;98663.75;5081804;28;19931;-88
2023/10/17 03:05:41;;;;;;;;;;;;;;;26.91;20.39;98660.69;5087443;28;19920;-88
2023/10/17 03:08:10;;;;;;;;;;;;;;;26.86;20.20;98664.03;5074955;28;20334;-88
2023/10/17 03:10:40;;;;;;;;;;;;;;;26.89;20.13;98663.94;5082860;28;19963;-88
2023/10/17 03:13:14;;;;;;;;;;;;;;;26.84;20.10;98672.13;5072843;28;19916;-89
2023/10/17 03:15:46;;;;;;;;;;;;;;;26.88;20.32;98672.84;5076739;28;20427;-89
2023/10/17 03:18:15;;;;;;;;;;;;;;;26.63;20.18;98670.56;5081265;28;19920;-89
2023/10/17 03:20:42;;;;;;;;;;;;;;;26.54;20.82;98673.97;5082203;28;20022;-89
2023/10/17 03:23:11;;;;;;;;;;;;;;;26.74;20.21;98680.38;5089027;28;19920;-89
2023/10/17 03:25:37;;;;;;;;;;;;;;;26.83;20.17;98681.81;5074123;28;20023;-88
2023/10/17 03:28:04;;;;;;;;;;;;;;;26.79;19.99;98684.72;5074657;28;20079;-89
2023/10/17 03:30:30;;;;;;;;;;;;;;;26.84;20.02;98686.22;5075912;28;19927;-88
2023/10/17 03:35:26;;;;;;;;;;;;;;;26.33;20.41;98682.88;5081113;28;19920;-88
2023/10/17 03:37:55;;;;;;;;;;;;;;;26.44;20.14;98685.50;5087662;28;19920;-88
2023/10/17 03:40:34;;;;;;;;;;;;;;;26.57;20.14;98684.38;5078372;28;19927;-88
2023/10/17 03:43:12;;;;;;;;;;;;;;;26.45;20.10;98682.22;5075750;28;19925;-89
2023/10/17 03:45:52;;;;;;;;;;;;;;;26.46;19.98;98678.19;5078758;28;19928;-87
2023/10/17 03:48:20;;;;;;;;;;;;;;;26.51;20.02;98677.66;5080018;28;19964;-89
2023/10/17 03:53:15;;;;;;;;;;;;;;;26.52;19.65;98681.28;5079425;28;19973;-87
2023/10/17 03:56:00;;;;;;;;;;;;;;;26.58;19.73;98682.38;5079001;28;19956;-87
2023/10/17 04:00:54;;;;;;;;;;;;;;;26.21;19.94;98680.72;5077473;28;19959;-87
2023/10/17 04:03:21;;;;;;;;;;;;;;;26.10;20.37;98671.72;5074559;28;19928;-88
2023/10/17 04:05:51;;;;;;;;;;;;;;;26.24;20.57;98668.63;5071534;28;19917;-89
2023/10/17 04:08:19;;;;;;;;;;;;;;;26.30;19.84;98666.09;5071568;28;19928;-86
2023/10/17 04:10:53;;;;;;;;;;;;;;;26.27;19.76;98666.94;5073888;28;19916;-88
2023/10/17 04:13:34;;;;;;;;;;;;;;;26.02;20.13;98673.84;5078621;28;20265;-88
2023/10/17 04:16:08;;;;;;;;;;;;;;;25.87;20.30;98674.59;5075580;28;19956;-88
2023/10/17 04:18:37;;;;;;;;;;;;;;;25.85;20.44;98668.59;5080842;28;19928;-87
2023/10/17 04:21:26;;;;;;;;;;;;;;;25.97;20.59;98665.94;5081122;28;19943;-87
2023/10/17 04:23:53;;;;;;;;;;;;;;;26.09;19.97;98665.25;5077442;28;20368;-88
2023/10/17 04:26:19;;;;;;;;;;;;;;;25.98;19.61;98661.88;5072448;28;19924;-87
2023/10/17 04:28:51;;;;;;;;;;;;;;;26.00;19.86;98664.25;5073763;28;19924;-88
2023/10/17 04:31:24;;;;;;;;;;;;;;;26.07;19.62;98652.84;5080249;28;19920;-91
2023/10/17 04:34:05;;;;;;;;;;;;;;;25.90;20.01;98668.91;5079104;28;19920;-89
2023/10/17 04:36:36;;;;;;;;;;;;;;;25.90;19.57;98662.47;5069534;28;19924;-91
2023/10/17 04:44:16;;;;;;;;;;;;;;;25.88;19.37;98668.50;5084476;28;19925;-90
2023/10/17 04:47:06;;;;;;;;;;;;;;;25.72;19.39;98662.81;5080025;28;19928;-87
2023/10/17 04:49:36;;;;;;;;;;;;;;;25.68;20.06;98661.28;5079285;28;19920;-88
2023/10/17 04:52:18;;;;;;;;;;;;;;;25.73;19.54;98667.22;5075913;28;19925;-88
2023/10/17 04:54:44;;;;;;;;;;;;;;;25.76;19.62;98666.38;5076455;28;20089;-89
2023/10/17 04:57:16;;;;;;;;;;;;;;;25.70;19.65;98661.66;5076695;28;20930;-90
2023/10/17 06:19:32;;;;;;;;;;;;;;;26.69;19.99;98748.50;5080224;28;19927;-95
2023/10/17 06:30:29;;;;;;;;;;;;;;;26.87;20.60;98741.69;5058221;28;20339;-92
2023/10/17 06:33:16;;;;;;;;;;;;;;;27.04;20.48;98749.75;5096071;28;19969;-92
2023/10/17 06:35:52;;;;;;;;;;;;;;;26.63;21.02;98749.44;5078540;28;19924;-93
2023/10/17 06:38:19;;;;;;;;;;;;;;;26.39;21.34;98754.38;5075336;28;19916;-92
2023/10/17 06:40:45;;;;;;;;;;;;;;;26.31;21.83;98764.19;5075281;28;19942;-95
2023/10/17 06:43:27;;;;;;;;;;;;;;;26.70;21.36;98766.97;5075721;28;19917;-95
2023/10/17 06:46:00;;;;;;;;;;;;;;;26.90;21.25;98766.19;5075181;28;20292;-95
2023/10/17 06:48:32;;;;;;;;;;;;;;;27.13;20.89;98760.41;5075781;28;20347;-95
2023/10/17 06:53:52;;;;;;;;;;;;;;;27.61;20.85;98771.72;5093995;28;20015;-95
2023/10/17 06:56:18;;;;;;;;;;;;;;;27.32;21.48;98766.00;5094942;28;20431;-95
2023/10/17 06:58:44;;;;;;;;;;;;;;;27.12;21.56;98772.94;5094806;28;19950;-94
2023/10/17 07:01:19;;;;;;;;;;;;;;;27.18;21.66;98771.97;5095086;28;19985;-95
2023/10/17 07:03:45;;;;;;;;;;;;;;;27.45;21.43;98774.56;5088311;28;20617;-92
2023/10/17 07:06:16;;;;;;;;;;;;;;;27.14;22.26;98774.06;5074743;28;19916;-92
2023/10/17 07:08:45;;;;;;;;;;;;;;;26.93;22.24;98776.59;5076501;28;19920;-92
2023/10/17 07:16:34;;;;;;;;;;;;;;;27.52;22.26;98774.38;5073289;28;19921;-94
2023/10/17 07:24:36;;;;;;;;;;;;;;;28.59;21.20;98762.63;5075992;28;19939;-93
2023/10/17 07:27:03;;;;;;;;;;;;;;;28.59;20.79;98759.81;5081871;28;19924;-92
2023/10/17 07:29:36;;;;;;;;;;;;;;;28.76;20.72;98766.16;5074089;28;20289;-92
2023/10/17 07:32:09;;;;;;;;;;;;;;;28.93;20.55;98761.22;5099938;28;19947;-92
2023/10/17 07:34:36;;;;;;;;;;;;;;;28.82;20.54;98760.75;5096830;28;19923;-93
2023/10/17 07:40:17;;;;;;;;;;;;;;;29.02;20.58;98761.34;5074358;28;19917;-93
2023/10/17 07:42:45;;;;;;;;;;;;;;;29.16;20.42;98763.72;5075330;28;20390;-93
2023/10/17 07:45:15;;;;;;;;;;;;;;;29.16;19.97;98767.34;5093798;28;19924;-92
2023/10/17 07:47:41;;;;;;;;;;;;;;;29.08;20.43;98757.47;5093883;28;19919;-92
2023/10/17 07:50:12;;;;;;;;;;;;;;;29.02;20.24;98764.97;5093953;28;19916;-91
2023/10/17 07:52:44;;;;;;;;;;;;;;;28.88;20.08;98762.56;5093902;28;20378;-92
2023/10/17 07:55:23;;;;;;;;;;;;;;;28.70;20.47;98757.47;5093725;28;20358;-91
2023/10/17 07:57:52;;;;;;;;;;;;;;;28.71;20.50;98766.72;5075473;28;19921;-92
2023/10/17 08:00:33;;;;;;;;;;;;;;;28.95;19.56;98764.38;5080765;28;20011;-91
2023/10/17 08:03:15;;;;;;;;;;;;;;;28.75;19.75;98758.94;5093726;28;19946;-92
2023/10/17 08:08:33;;;;;;;;;;;;;;;28.55;20.24;98761.91;5088954;28;19943;-92
2023/10/17 08:11:05;;;;;;;;;;;;;;;28.50;20.21;98758.84;5073448;28;19927;-91
2023/10/17 08:13:32;;;;;;;;;;;;;;;28.46;21.08;98760.97;5078958;28;20048;-90
2023/10/17 08:16:05;;;;;;;;;;;;;;;28.62;20.36;98760.94;5093218;28;20010;-90
2023/10/17 08:18:39;;;;;;;;;;;;;;;28.55;20.94;98763.94;5091198;28;20333;-90
2023/10/17 08:23:47;;;;;;;;;;;;;;;28.94;20.82;98760.75;5093427;28;20368;-91
2023/10/17 08:26:17;;;;;;;;;;;;;;;28.93;21.14;98762.00;5094354;28;20299;-90
2023/10/17 08:28:46;;;;;;;;;;;;;;;29.37;20.28;98766.69;5097316;28;20352;-90
2023/10/17 08:36:42;;;;;;;;;;;;;;;28.78;21.29;98751.59;5076992;28;20268;-91
2023/10/17 08:39:51;;;;;;;;;;;;;;;28.88;20.48;98756.13;5076908;28;20380;-90
2023/10/17 08:42:13;;;;;;;;;;;;;;;28.74;20.11;98755.31;5076636;28;20360;-90
2023/10/17 08:44:41;;;;;;;;;;;;;;;29.18;20.52;98759.22;5076529;28;20011;-91
2023/10/17 08:47:07;;;;;;;;;;;;;;;29.60;19.40;98762.69;5078425;28;20035;-90
2023/10/17 08:49:33;;;;;;;;;;;;;;;29.23;19.68;98764.31;5103702;28;19967;-90
2023/10/17 08:52:00;;;;;;;;;;;;;;;29.34;20.10;98756.25;5089268;28;19927;-91
2023/10/17 08:54:28;;;;;;;;;;;;;;;29.17;18.88;98756.81;5096879;28;20006;-90
2023/10/17 08:56:55;;;;;;;;;;;;;;;28.46;18.78;98758.16;5096761;28;19916;-90
2023/10/17 08:59:58;;;;;;;;;;;;;;;28.36;19.54;98757.22;5096805;28;19912;-90
2023/10/17 09:02:17;;;;;;;;;;;;;;;28.28;19.33;98760.72;5096350;28;19916;-90
2023/10/17 09:04:46;;;;;;;;;;;;;;;28.46;19.26;98760.97;5087630;28;19916;-90
2023/10/17 09:10:15;;;;;;;;;;;;;;;28.73;18.88;98756.56;5066096;28;19966;-89
2023/10/17 09:15:39;;;;;;;;;;;;;;;29.14;19.14;98757.72;5075956;28;19932;-90
2023/10/17 09:18:08;;;;;;;;;;;;;;;29.46;19.47;98759.53;5076422;28;19917;-90
2023/10/17 09:20:34;;;;;;;;;;;;;;;29.73;18.95;98759.84;5075977;28;20058;-90
2023/10/17 09:23:00;;;;;;;;;;;;;;;29.96;19.01;98754.59;5076512;28;19921;-90
2023/10/17 09:25:27;;;;;;;;;;;;;;;30.19;18.74;98749.72;5084374;28;20033;-91
2023/10/17 09:27:53;;;;;;;;;;;;;;;30.43;18.48;98745.25;5096065;28;19951;-91
2023/10/17 09:30:19;;;;;;;;;;;;;;;30.57;17.85;98753.97;5095881;28;20010;-91
2023/10/17 09:32:48;;;;;;;;;;;;;;;30.63;17.70;98748.50;5096390;28;19912;-91
2023/10/17 09:35:15;;;;;;;;;;;;;;;30.70;17.14;98748.25;5095925;28;19969;-90
2023/10/17 09:37:42;;;;;;;;;;;;;;;30.61;17.86;98748.97;5094803;28;19916;-91
2023/10/17 09:40:12;;;;;;;;;;;;;;;30.63;18.58;98754.97;5076516;28;20035;-90
2023/10/17 09:42:40;;;;;;;;;;;;;;;30.57;17.61;98745.47;5078538;28;20312;-91
2023/10/17 09:45:07;;;;;;;;;;;;;;;30.77;17.67;98742.28;5095975;28;19920;-91
2023/10/17 09:47:37;;;;;;;;;;;;;;;30.88;16.45;98739.06;5096072;28;20334;-91
2023/10/17 09:50:08;;;;;;;;;;;;;;;30.53;16.46;98744.03;5095931;28;19916;-91
2023/10/17 09:52:34;;;;;;;;;;;;;;;30.64;16.78;98747.28;5096315;28;19924;-91
2023/10/17 09:55:04;;;;;;;;;;;;;;;30.16;17.77;98742.16;5093795;28;20019;-92
2023/10/17 09:57:31;;;;;;;;;;;;;;;28.05;19.04;98742.75;5075471;28;19992;-92
2023/10/17 10:00:14;;;;;;;;;;;;;;;29.08;18.98;98743.34;5087946;28;19923;-92
2023/10/17 10:02:42;;;;;;;;;;;;;;;30.01;18.11;98727.72;5095597;28;20356;-91
2023/10/17 10:05:24;;;;;;;;;;;;;;;30.66;17.93;98733.41;5090887;28;19924;-90
2023/10/17 10:07:52;;;;;;;;;;;;;;;30.46;17.86;98719.59;5075096;28;19916;-91
2023/10/17 10:10:37;;;;;;;;;;;;;;;30.80;17.62;98715.06;5076417;28;19916;-90
2023/10/17 10:13:07;;;;;;;;;;;;;;;31.08;17.89;98713.97;5084578;28;19978;-93
2023/10/17 10:15:51;;;;;;;;;;;;;;;31.37;17.09;98711.50;5075464;28;19924;-91
2023/10/17 10:18:40;;;;;;;;;;;;;;;30.83;16.96;98711.31;5095352;28;19923;-91
2023/10/17 10:21:13;;;;;;;;;;;;;;;30.31;17.26;98710.03;5088520;28;19912;-90
2023/10/17 10:23:40;;;;;;;;;;;;;;;29.87;18.07;98708.41;5095144;28;19916;-91
2023/10/17 10:26:11;;;;;;;;;;;;;;;29.11;17.25;98705.69;5095218;28;19916;-91
2023/10/17 10:28:37;;;;;;;;;;;;;;;28.56;18.93;98707.00;5094770;28;19917;-91
2023/10/17 10:31:24;;;;;;;;;;;;;;;27.66;19.45;98692.19;5094540;28;19916;-92
2023/10/17 10:33:54;;;;;;;;;;;;;;;27.24;20.37;98696.88;5082551;28;19917;-91
2023/10/17 10:36:23;;;;;;;;;;;;;;;28.34;19.57;98697.56;5074539;28;19920;-90
2023/10/17 10:38:50;;;;;;;;;;;;;;;29.47;18.74;98696.84;5074504;28;19921;-90
2023/10/17 10:41:18;;;;;;;;;;;;;;;30.52;18.16;98689.41;5081883;28;19927;-91
2023/10/17 10:43:44;;;;;;;;;;;;;;;30.36;16.19;98678.28;5080772;28;20368;-90
2023/10/17 10:46:11;;;;;;;;;;;;;;;29.75;16.39;98678.88;5075199;28;19953;-91
2023/10/17 10:48:45;;;;;;;;;;;;;;;29.66;17.47;98672.34;5082661;28;20260;-91
2023/10/17 10:51:15;;;;;;;;;;;;;;;29.77;18.20;98672.78;5079658;28;19994;-91
2023/10/17 10:53:42;;;;;;;;;;;;;;;30.62;16.57;98664.75;5073119;28;20368;-90
2023/10/17 10:56:13;;;;;;;;;;;;;;;29.51;17.42;98672.03;5081340;28;19916;-92
2023/10/17 10:58:43;;;;;;;;;;;;;;;29.10;18.36;98672.97;5094504;28;19927;-91
2023/10/17 11:01:10;;;;;;;;;;;;;;;28.99;18.71;98674.56;5094570;28;19950;-91
2023/10/17 11:03:41;;;;;;;;;;;;;;;26.92;20.26;98673.53;5091200;28;20328;-91
2023/10/17 11:06:10;;;;;;;;;;;;;;;25.71;21.33;98669.66;5086859;28;19920;-90
2023/10/17 11:08:37;;;;;;;;;;;;;;;23.53;25.07;98679.22;5093548;28;19923;-90
2023/10/17 11:11:04;;;;;;;;;;;;;;;24.28;23.58;98673.56;5086733;28;20340;-90
2023/10/17 11:13:31;;;;;;;;;;;;;;;23.40;27.05;98666.16;5073968;28;20395;-90
2023/10/17 11:15:57;;;;;;;;;;;;;;;22.35;26.49;98660.91;5073528;28;19924;-90
2023/10/17 11:18:23;;;;;;;;;;;;;;;23.56;25.07;98655.97;5073950;28;20399;-91
2023/10/17 11:20:54;;;;;;;;;;;;;;;24.50;24.42;98658.81;5075317;28;20236;-90
2023/10/17 11:23:22;;;;;;;;;;;;;;;25.61;23.10;98650.19;5093958;28;20034;-92
2023/10/17 11:25:48;;;;;;;;;;;;;;;25.89;22.59;98641.97;5095298;28;19916;-90
2023/10/17 11:28:16;;;;;;;;;;;;;;;25.08;22.33;98642.69;5098803;28;20351;-90
2023/10/17 11:30:42;;;;;;;;;;;;;;;25.43;22.73;98642.06;5078619;28;19920;-91
2023/10/17 11:33:13;;;;;;;;;;;;;;;23.38;23.82;98640.53;5077126;28;19917;-91
2023/10/17 11:36:12;;;;;;;;;;;;;;;24.03;23.17;98646.59;5074180;28;19946;-91
2023/10/17 11:38:40;;;;;;;;;;;;;;;24.54;22.84;98644.72;5073932;28;19952;-91
2023/10/17 11:41:09;;;;;;;;;;;;;;;26.17;21.16;98645.44;5079087;28;19916;-91
2023/10/17 11:43:37;;;;;;;;;;;;;;;26.26;20.70;98646.44;5094043;28;19969;-91
2023/10/17 11:46:03;;;;;;;;;;;;;;;26.47;20.51;98648.78;5087193;28;19921;-91
2023/10/17 11:48:31;;;;;;;;;;;;;;;25.78;20.97;98640.59;5081646;28;20281;-89
2023/10/17 11:51:05;;;;;;;;;;;;;;;27.12;20.09;98629.94;5073496;28;19924;-90
2023/10/17 11:53:31;;;;;;;;;;;;;;;27.33;19.75;98643.47;5090934;28;19923;-90
2023/10/17 11:55:58;;;;;;;;;;;;;;;27.86;20.74;98650.53;5076560;28;19920;-92
2023/10/17 11:58:25;;;;;;;;;;;;;;;27.66;18.99;98637.78;5081558;28;20050;-90
2023/10/17 12:00:51;;;;;;;;;;;;;;;27.89;19.17;98637.56;5094308;28;19924;-90
2023/10/17 12:03:20;;;;;;;;;;;;;;;28.16;18.69;98637.19;5078468;28;19920;-91
2023/10/17 12:05:47;;;;;;;;;;;;;;;27.92;18.02;98637.44;5077256;28;19917;-90
2023/10/17 12:08:22;;;;;;;;;;;;;;;27.03;19.57;98634.59;5077260;28;19922;-90
2023/10/17 12:10:49;;;;;;;;;;;;;;;27.06;19.51;98637.34;5077270;28;19940;-91
2023/10/17 12:13:17;;;;;;;;;;;;;;;27.33;19.48;98629.38;5077123;28;19916;-90
2023/10/17 12:15:44;;;;;;;;;;;;;;;26.97;19.87;98633.56;5077334;28;20375;-91
2023/10/17 12:18:11;;;;;;;;;;;;;;;26.90;19.39;98630.91;5077680;28;19964;-90
2023/10/17 12:20:40;;;;;;;;;;;;;;;26.83;20.48;98625.44;5077252;28;19917;-90
2023/10/17 12:23:12;;;;;;;;;;;;;;;27.90;18.70;98623.00;5077035;28;19923;-91
2023/10/17 12:25:42;;;;;;;;;;;;;;;28.08;18.64;98618.91;5077540;28;19918;-90
2023/10/17 12:28:08;;;;;;;;;;;;;;;28.36;19.20;98613.16;5092512;28;20371;-90
2023/10/17 12:30:38;;;;;;;;;;;;;;;28.49;17.66;98619.63;5077046;28;19917;-91
2023/10/17 12:33:08;;;;;;;;;;;;;;;28.47;18.51;98612.84;5090435;28;19960;-91
2023/10/17 12:35:34;;;;;;;;;;;;;;;28.57;17.42;98617.34;5081943;28;19934;-91
2023/10/17 12:38:14;;;;;;;;;;;;;;;28.66;17.97;98609.81;5077001;28;19924;-90
2023/10/17 12:40:41;;;;;;;;;;;;;;;28.03;17.57;98594.81;5076839;28;20386;-90
2023/10/17 12:43:08;;;;;;;;;;;;;;;28.14;18.04;98600.16;5085513;28;19916;-91
2023/10/17 12:45:36;;;;;;;;;;;;;;;28.96;17.24;98596.34;5089107;28;19920;-91
2023/10/17 12:48:02;;;;;;;;;;;;;;;29.82;16.96;98587.25;5076280;28;20302;-91
2023/10/17 12:50:29;;;;;;;;;;;;;;;30.74;17.30;98590.91;5077284;28;19947;-90
2023/10/17 12:52:55;;;;;;;;;;;;;;;30.70;17.19;98589.47;5076829;28;19918;-90
2023/10/17 12:55:21;;;;;;;;;;;;;;;31.08;16.13;98581.44;5076720;28;19924;-91
2023/10/17 12:57:47;;;;;;;;;;;;;;;31.16;16.49;98585.50;5092314;28;19924;-91
2023/10/17 13:00:14;;;;;;;;;;;;;;;31.41;16.07;98579.53;5096972;28;19935;-90
2023/10/17 13:02:41;;;;;;;;;;;;;;;30.34;16.01;98575.94;5089199;28;19924;-90
2023/10/17 13:05:10;;;;;;;;;;;;;;;29.92;17.17;98577.59;5079993;28;19923;-91
2023/10/17 13:07:36;;;;;;;;;;;;;;;29.70;17.71;98576.75;5077122;28;20288;-90
2023/10/17 13:10:03;;;;;;;;;;;;;;;29.64;17.38;98568.06;5076296;28;19927;-91
2023/10/17 13:12:29;;;;;;;;;;;;;;;29.82;18.40;98562.56;5075425;28;19935;-91
2023/10/17 13:14:55;;;;;;;;;;;;;;;30.45;17.41;98562.16;5075718;28;19955;-91
2023/10/17 13:17:22;;;;;;;;;;;;;;;30.56;16.02;98562.50;5076795;28;19928;-90
2023/10/17 13:19:51;;;;;;;;;;;;;;;30.39;17.26;98560.38;5083985;28;19920;-90
2023/10/17 13:22:21;;;;;;;;;;;;;;;30.18;16.63;98553.47;5095184;28;20023;-91
2023/10/17 13:24:50;;;;;;;;;;;;;;;29.87;17.80;98561.94;5079215;28;20029;-91
2023/10/17 13:27:16;;;;;;;;;;;;;;;29.32;18.20;98552.25;5096258;28;19916;-91
2023/10/17 13:29:42;;;;;;;;;;;;;;;28.30;18.71;98557.69;5096116;28;19916;-91
2023/10/17 13:32:08;;;;;;;;;;;;;;;28.86;17.97;98561.53;5086051;28;20024;-90
2023/10/17 13:34:35;;;;;;;;;;;;;;;28.05;19.08;98545.13;5090807;28;19985;-91
2023/10/17 13:37:04;;;;;;;;;;;;;;;28.54;18.71;98547.66;5079953;28;19939;-91
2023/10/17 13:39:31;;;;;;;;;;;;;;;28.73;18.68;98552.25;5075980;28;20451;-91
2023/10/17 13:41:57;;;;;;;;;;;;;;;28.87;16.85;98548.97;5092177;28;19927;-91
2023/10/17 13:44:23;;;;;;;;;;;;;;;29.18;16.68;98532.16;5075350;28;20011;-91
2023/10/17 13:46:51;;;;;;;;;;;;;;;29.49;17.02;98532.25;5078184;28;19924;-91
2023/10/17 13:49:17;;;;;;;;;;;;;;;29.13;17.63;98535.53;5088785;28;19921;-94
2023/10/17 13:51:46;;;;;;;;;;;;;;;28.81;17.98;98528.19;5075374;28;19986;-92
2023/10/17 13:54:13;;;;;;;;;;;;;;;28.33;17.74;98526.53;5076379;28;19917;-91
2023/10/17 13:56:40;;;;;;;;;;;;;;;29.26;18.29;98522.97;5075860;28;20357;-90
2023/10/17 13:59:09;;;;;;;;;;;;;;;29.60;16.90;98521.31;5089637;28;19920;-92
2023/10/17 14:01:41;;;;;;;;;;;;;;;29.73;17.84;98527.72;5095308;28;19920;-91
2023/10/17 14:04:11;;;;;;;;;;;;;;;29.74;17.18;98515.94;5091633;28;19921;-90
2023/10/17 14:06:42;;;;;;;;;;;;;;;29.81;17.41;98524.19;5094895;28;19920;-90
2023/10/17 14:09:14;;;;;;;;;;;;;;;30.08;17.17;98518.66;5089638;28;20281;-91
2023/10/17 14:11:46;;;;;;;;;;;;;;;30.21;17.14;98521.41;5090342;28;19920;-91
2023/10/17 14:14:13;;;;;;;;;;;;;;;30.13;16.85;98514.44;5088535;28;20429;-90
2023/10/17 14:16:42;;;;;;;;;;;;;;;30.16;16.71;98518.38;5075816;28;19927;-91
2023/10/17 14:22:08;;;;;;;;;;;;;;;29.92;17.47;98509.63;5075061;28;19924;-91
2023/10/17 14:25:00;;;;;;;;;;;;;;;29.55;17.71;98516.25;5075567;28;19948;-91
2023/10/17 14:27:29;;;;;;;;;;;;;;;28.87;17.85;98512.22;5080842;28;19927;-88
2023/10/17 14:29:59;;;;;;;;;;;;;;;29.06;17.60;98507.50;5093309;28;20376;-86
2023/10/17 14:32:26;;;;;;;;;;;;;;;29.29;17.67;98498.66;5078953;28;19920;-88
2023/10/17 14:34:53;;;;;;;;;;;;;;;29.07;18.32;98501.41;5075289;28;19917;-88
2023/10/17 14:37:20;;;;;;;;;;;;;;;28.85;18.27;98499.78;5076014;28;19927;-87
2023/10/17 14:39:46;;;;;;;;;;;;;;;29.29;17.88;98505.06;5085703;28;19966;-90
2023/10/17 14:42:17;;;;;;;;;;;;;;;29.45;17.69;98500.50;5085854;28;20375;-87
2023/10/17 14:44:45;;;;;;;;;;;;;;;29.41;17.90;98501.41;5079774;28;20395;-88
2023/10/17 14:47:16;;;;;;;;;;;;;;;29.30;17.94;98500.22;5075484;28;20010;-87
2023/10/17 14:49:46;;;;;;;;;;;;;;;29.21;18.04;98495.28;5072713;28;19927;-91
2023/10/17 14:52:13;;;;;;;;;;;;;;;29.42;18.44;98496.53;5084502;28;19969;-88
2023/10/17 14:54:42;;;;;;;;;;;;;;;29.56;18.16;98478.22;5077905;28;19952;-87
2023/10/17 14:57:09;;;;;;;;;;;;;;;29.56;18.48;98493.19;5075811;28;19916;-89
2023/10/17 14:59:38;;;;;;;;;;;;;;;29.33;18.65;98491.59;5085632;28;20019;-89
2023/10/17 15:02:05;;;;;;;;;;;;;;;28.97;19.39;98493.28;5081464;28;19916;-90
2023/10/17 15:04:31;;;;;;;;;;;;;;;28.87;19.41;98488.81;5087069;28;19924;-89
2023/10/17 15:06:57;;;;;;;;;;;;;;;29.08;19.13;98500.16;5083995;28;19973;-88
2023/10/17 15:09:26;;;;;;;;;;;;;;;29.33;19.00;98494.44;5077561;28;20382;-89
2023/10/17 15:11:53;;;;;;;;;;;;;;;29.42;19.27;98496.53;5073172;28;19966;-90
2023/10/17 15:14:22;;;;;;;;;;;;;;;29.45;19.50;98500.50;5078341;28;19924;-92
2023/10/17 15:16:49;;;;;;;;;;;;;;;29.15;18.76;98491.41;5082277;28;19932;-90
2023/10/17 15:19:15;;;;;;;;;;;;;;;28.96;19.48;98498.19;5078504;28;19924;-88